Time;durP1;ratioP1;P1;durP2;ratioP2;P2;SDS_P1;SDS_P2;PMS_P1;PMS_P2;Temp;Humidity;BMP_temperature;BMP_pressure;BME280_temperature;BME280_humidity;BME280_pressure;Samples;Min_cycle;Max_cycle;Signal;HPM_P1;HPM_P2
2022/04/08 00:00:35;;;;;;;13.65;2.08;;;3.80;99.90;;;;;;6186643;23;20104;-92
2022/04/08 00:03:01;;;;;;;6.65;1.33;;;3.80;99.90;;;;;;6187711;23;20436;-92
2022/04/08 00:05:28;;;;;;;10.90;1.45;;;3.80;99.90;;;;;;6187769;23;20013;-92
2022/04/08 00:07:54;;;;;;;13.82;1.67;;;3.70;99.90;;;;;;6188176;23;20009;-92
2022/04/08 00:10:20;;;;;;;16.75;2.58;;;3.70;99.90;;;;;;6188137;23;20012;-92
2022/04/08 00:12:47;;;;;;;9.85;2.67;;;3.70;99.90;;;;;;6188204;23;20024;-91
2022/04/08 00:15:18;;;;;;;11.82;1.65;;;3.70;99.90;;;;;;6191381;23;20009;-91
2022/04/08 00:17:44;;;;;;;7.55;1.90;;;3.70;99.90;;;;;;6188724;23;20013;-91
2022/04/08 00:20:12;;;;;;;5.82;1.10;;;3.70;99.90;;;;;;6188184;23;20008;-91
2022/04/08 00:22:40;;;;;;;9.68;1.50;;;3.70;99.90;;;;;;6187718;23;20001;-93
2022/04/08 00:25:07;;;;;;;9.55;1.30;;;3.70;99.90;;;;;;6187822;23;20088;-91
2022/04/08 00:27:33;;;;;;;11.95;1.58;;;3.70;99.90;;;;;;6187976;23;20001;-92
2022/04/08 00:29:58;;;;;;;11.30;1.73;;;3.70;99.90;;;;;;6187429;23;20100;-91
2022/04/08 00:32:26;;;;;;;10.45;2.17;;;3.70;99.90;;;;;;6188291;23;20009;-92
2022/04/08 00:34:52;;;;;;;4.95;1.00;;;3.70;99.90;;;;;;6187793;23;20001;-91
2022/04/08 00:37:18;;;;;;;6.72;1.48;;;3.70;99.90;;;;;;6187901;23;20001;-92
2022/04/08 00:39:44;;;;;;;6.68;1.60;;;3.70;99.90;;;;;;6187532;23;20005;-92
2022/04/08 00:42:13;;;;;;;3.60;1.30;;;3.70;99.90;;;;;;6188705;23;20337;-92
2022/04/08 00:44:39;;;;;;;5.03;0.93;;;3.70;99.90;;;;;;6188081;23;20047;-92
2022/04/08 00:47:05;;;;;;;8.60;1.17;;;3.70;99.90;;;;;;6187787;23;20002;-92
2022/04/08 00:49:33;;;;;;;7.60;1.00;;;3.70;99.90;;;;;;6186994;23;20020;-91
2022/04/08 00:52:00;;;;;;;3.75;1.30;;;3.60;99.90;;;;;;6187758;23;20020;-91
2022/04/08 00:54:26;;;;;;;7.22;1.85;;;3.60;99.90;;;;;;6187642;23;20173;-92
2022/04/08 00:56:52;;;;;;;8.30;1.20;;;3.60;99.90;;;;;;6188061;23;20009;-92
2022/04/08 00:59:18;;;;;;;12.85;1.70;;;3.60;99.90;;;;;;6187736;23;20005;-92
2022/04/08 01:01:44;;;;;;;7.88;1.65;;;3.60;99.90;;;;;;6192636;23;20032;-92
2022/04/08 01:04:10;;;;;;;8.05;1.08;;;3.60;99.90;;;;;;6189623;23;20016;-93
2022/04/08 01:06:36;;;;;;;4.65;1.42;;;3.60;99.90;;;;;;6187372;23;20016;-91
2022/04/08 01:09:02;;;;;;;12.20;2.00;;;3.60;99.90;;;;;;6186548;23;20035;-91
2022/04/08 01:11:28;;;;;;;12.38;1.50;;;3.60;99.90;;;;;;6187326;23;20005;-91
2022/04/08 01:13:53;;;;;;;6.85;1.20;;;3.60;99.90;;;;;;6186827;23;20016;-91
2022/04/08 01:16:22;;;;;;;7.00;1.55;;;3.60;99.90;;;;;;6187035;23;20005;-92
2022/04/08 01:18:48;;;;;;;9.13;1.63;;;3.50;99.90;;;;;;6186547;23;20444;-91
2022/04/08 01:21:16;;;;;;;10.98;1.95;;;3.50;99.90;;;;;;6186735;23;20012;-91
2022/04/08 01:23:47;;;;;;;9.48;2.83;;;3.50;99.90;;;;;;6186634;23;20017;-91
2022/04/08 01:26:13;;;;;;;4.40;1.55;;;3.50;99.90;;;;;;6187351;23;20065;-91
2022/04/08 01:28:39;;;;;;;9.75;1.77;;;3.50;99.90;;;;;;6187087;23;20005;-90
2022/04/08 01:31:04;;;;;;;10.05;1.90;;;3.50;99.90;;;;;;6186576;23;20294;-91
2022/04/08 01:33:30;;;;;;;11.63;2.22;;;3.40;99.90;;;;;;6187351;23;20004;-90
2022/04/08 01:35:56;;;;;;;12.27;1.88;;;3.40;99.90;;;;;;6186265;23;20009;-91
2022/04/08 01:38:21;;;;;;;10.40;2.17;;;3.40;99.90;;;;;;6186059;23;20016;-90
2022/04/08 01:40:47;;;;;;;5.65;1.50;;;3.30;99.90;;;;;;6186291;23;20027;-91
2022/04/08 01:43:13;;;;;;;4.18;1.75;;;3.30;99.90;;;;;;6186794;23;20013;-91
2022/04/08 01:45:38;;;;;;;14.88;2.25;;;3.30;99.90;;;;;;6186379;23;20019;-92
2022/04/08 01:48:04;;;;;;;8.10;1.90;;;3.30;99.90;;;;;;6185737;23;20000;-91
2022/04/08 01:50:30;;;;;;;7.53;1.95;;;3.20;99.90;;;;;;6161176;23;20407;-91
2022/04/08 01:52:56;;;;;;;8.45;1.48;;;3.30;99.90;;;;;;6160720;23;20005;-92
2022/04/08 01:55:21;;;;;;;8.10;2.08;;;3.20;99.90;;;;;;6161163;23;20005;-91
2022/04/08 01:57:47;;;;;;;14.68;2.40;;;3.20;99.90;;;;;;6161344;23;20028;-91
2022/04/08 02:00:13;;;;;;;8.88;2.30;;;3.20;99.90;;;;;;6161272;23;20005;-90
2022/04/08 02:02:39;;;;;;;11.75;2.13;;;3.10;99.90;;;;;;6160811;23;20001;-91
2022/04/08 02:05:06;;;;;;;11.02;2.08;;;3.10;99.90;;;;;;6160365;23;20448;-92
2022/04/08 02:07:31;;;;;;;10.48;2.00;;;3.10;99.90;;;;;;6159966;23;20025;-92
2022/04/08 02:09:57;;;;;;;6.22;1.80;;;3.10;99.90;;;;;;6160291;23;20339;-92
2022/04/08 02:12:23;;;;;;;9.88;2.08;;;3.20;99.90;;;;;;6160215;23;20002;-92
2022/04/08 02:14:49;;;;;;;10.32;1.80;;;3.20;99.90;;;;;;6160173;23;20441;-92
2022/04/08 02:17:14;;;;;;;11.30;2.08;;;3.20;99.90;;;;;;6161682;23;20029;-90
2022/04/08 02:19:40;;;;;;;12.48;1.80;;;3.20;99.90;;;;;;6160785;23;20001;-91
2022/04/08 02:22:07;;;;;;;11.13;2.03;;;3.20;99.90;;;;;;6160314;23;20159;-91
2022/04/08 02:24:33;;;;;;;7.00;1.67;;;3.20;99.90;;;;;;6160547;23;20025;-92
2022/04/08 02:26:59;;;;;;;6.28;1.65;;;3.10;99.90;;;;;;6160981;23;20005;-91
2022/04/08 02:29:25;;;;;;;6.53;2.00;;;3.10;99.90;;;;;;6160581;23;20005;-91
2022/04/08 02:31:52;;;;;;;13.43;2.22;;;3.10;99.90;;;;;;6160579;23;20009;-92
2022/04/08 02:34:18;;;;;;;6.80;1.58;;;3.10;99.90;;;;;;6173309;23;20009;-91
2022/04/08 02:36:43;;;;;;;10.90;1.83;;;3.10;99.90;;;;;;6159831;23;20066;-92
2022/04/08 02:39:10;;;;;;;6.90;1.98;;;3.00;99.90;;;;;;6160144;23;20009;-91
2022/04/08 02:41:36;;;;;;;10.13;1.60;;;3.00;99.90;;;;;;6159686;23;20092;-92
2022/04/08 02:44:02;;;;;;;8.35;2.05;;;3.00;99.90;;;;;;6159814;23;20052;-91
2022/04/08 02:46:27;;;;;;;10.35;1.80;;;2.90;99.90;;;;;;6159359;23;20009;-91
2022/04/08 02:48:53;;;;;;;8.40;1.70;;;2.90;99.90;;;;;;6165648;23;20479;-92
2022/04/08 02:51:21;;;;;;;6.47;1.45;;;2.80;99.90;;;;;;6184450;23;20386;-91
2022/04/08 02:53:48;;;;;;;10.57;1.63;;;2.80;99.90;;;;;;6185501;23;20013;-92
2022/04/08 02:56:14;;;;;;;7.10;1.33;;;2.80;99.90;;;;;;6185754;23;20001;-93
2022/04/08 02:58:40;;;;;;;7.25;1.63;;;2.80;99.90;;;;;;6184929;23;20008;-92
2022/04/08 03:01:06;;;;;;;5.13;1.20;;;2.80;99.90;;;;;;6184934;23;20009;-93
2022/04/08 03:03:32;;;;;;;5.28;1.38;;;2.80;99.90;;;;;;6185371;23;20101;-93
2022/04/08 03:05:58;;;;;;;9.35;1.50;;;2.80;99.90;;;;;;6184397;23;20001;-91
2022/04/08 03:08:24;;;;;;;3.72;1.17;;;2.70;99.90;;;;;;6184363;23;20019;-93
2022/04/08 03:10:50;;;;;;;5.90;1.00;;;2.70;99.90;;;;;;6184401;23;20401;-93
2022/04/08 03:13:16;;;;;;;13.63;4.35;;;2.70;99.90;;;;;;6184455;23;20048;-92
2022/04/08 03:15:42;;;;;;;7.10;1.35;;;2.70;99.90;;;;;;6184682;23;20507;-93
2022/04/08 03:18:08;;;;;;;5.25;1.40;;;2.70;99.90;;;;;;6184579;23;20035;-93
2022/04/08 03:20:33;;;;;;;7.82;1.42;;;2.70;99.90;;;;;;6188518;23;20012;-91
2022/04/08 03:22:59;;;;;;;9.52;1.20;;;2.70;99.90;;;;;;6187529;23;20005;-92
2022/04/08 03:25:24;;;;;;;8.77;1.15;;;2.80;99.90;;;;;;6185520;23;20433;-92
2022/04/08 03:27:50;;;;;;;7.53;1.80;;;2.80;99.90;;;;;;6185914;23;20384;-92
2022/04/08 03:30:16;;;;;;;2.53;0.93;;;2.80;99.90;;;;;;6186129;23;20013;-91
2022/04/08 03:32:41;;;;;;;10.32;1.70;;;2.80;99.90;;;;;;6185975;23;20008;-91
2022/04/08 03:35:08;;;;;;;7.00;1.40;;;2.80;99.90;;;;;;6184587;23;20005;-92
2022/04/08 03:37:34;;;;;;;8.70;1.58;;;2.80;99.90;;;;;;6186265;23;20013;-90
2022/04/08 03:39:59;;;;;;;4.32;1.15;;;2.80;99.90;;;;;;6186730;23;20005;-93
2022/04/08 03:42:25;;;;;;;8.82;1.38;;;2.80;99.90;;;;;;6186758;23;20016;-91
2022/04/08 03:44:51;;;;;;;9.32;1.10;;;2.90;99.90;;;;;;6186242;23;20013;-93
2022/04/08 03:47:20;;;;;;;7.80;1.15;;;2.80;99.90;;;;;;6186187;23;20067;-91
2022/04/08 03:49:47;;;;;;;8.10;1.30;;;2.80;99.90;;;;;;6186759;23;20021;-91
2022/04/08 03:52:13;;;;;;;4.53;1.10;;;2.90;99.90;;;;;;6187122;23;20009;-92
2022/04/08 03:54:39;;;;;;;12.07;1.40;;;2.90;99.90;;;;;;6187655;23;20009;-92
2022/04/08 03:57:05;;;;;;;7.53;1.92;;;2.80;99.90;;;;;;6186577;23;20001;-92
2022/04/08 03:59:31;;;;;;;6.22;1.60;;;2.80;99.90;;;;;;6187021;23;20040;-92
2022/04/08 04:01:57;;;;;;;6.43;1.25;;;2.80;99.90;;;;;;6187170;23;20001;-91
2022/04/08 04:04:23;;;;;;;4.50;1.30;;;2.80;99.90;;;;;;6194241;23;20039;-92
2022/04/08 04:06:50;;;;;;;6.20;1.13;;;2.80;99.90;;;;;;6190352;23;20009;-91
2022/04/08 04:09:16;;;;;;;6.95;1.67;;;2.80;99.90;;;;;;6185958;23;20511;-91
2022/04/08 04:11:42;;;;;;;7.35;1.63;;;2.80;99.90;;;;;;6186177;23;20009;-94
2022/04/08 04:14:08;;;;;;;8.05;2.17;;;2.80;99.90;;;;;;6186770;23;20349;-93
2022/04/08 04:16:34;;;;;;;4.82;2.85;;;2.80;99.90;;;;;;6188378;23;20086;-90
2022/04/08 04:19:01;;;;;;;11.57;3.83;;;2.70;99.90;;;;;;6187203;23;20009;-93
2022/04/08 04:21:26;;;;;;;5.70;1.67;;;2.70;99.90;;;;;;6188153;23;20340;-92
2022/04/08 04:23:52;;;;;;;6.97;1.67;;;2.70;99.90;;;;;;6186852;23;20040;-91
2022/04/08 04:26:18;;;;;;;4.82;1.58;;;2.70;99.90;;;;;;6188792;23;20013;-90
2022/04/08 04:28:43;;;;;;;6.80;1.80;;;2.60;99.90;;;;;;6191988;23;20065;-90
2022/04/08 04:31:09;;;;;;;6.65;2.00;;;2.60;99.90;;;;;;6191825;23;20036;-92
2022/04/08 04:33:35;;;;;;;6.00;1.77;;;2.50;99.90;;;;;;6187399;23;20008;-91
2022/04/08 04:36:01;;;;;;;4.93;1.48;;;2.50;99.90;;;;;;6187077;23;20314;-92
2022/04/08 04:38:26;;;;;;;2.55;1.20;;;2.50;99.90;;;;;;6186204;23;20433;-92
2022/04/08 04:40:52;;;;;;;7.35;1.90;;;2.40;99.90;;;;;;6186442;23;20016;-92
2022/04/08 04:43:18;;;;;;;6.95;2.40;;;2.40;99.90;;;;;;6186611;23;20016;-92
2022/04/08 04:45:43;;;;;;;3.75;1.42;;;2.40;99.90;;;;;;6186229;23;20055;-92
2022/04/08 04:48:11;;;;;;;7.63;3.13;;;2.40;99.90;;;;;;6186040;23;20011;-92
2022/04/08 04:50:37;;;;;;;6.35;2.25;;;2.40;99.90;;;;;;6162240;23;20020;-92
2022/04/08 04:53:03;;;;;;;9.27;1.95;;;2.30;99.90;;;;;;6161993;23;20020;-92
2022/04/08 04:55:29;;;;;;;5.78;1.88;;;2.30;99.90;;;;;;6162236;23;20012;-94
2022/04/08 04:57:56;;;;;;;5.60;2.05;;;2.30;99.90;;;;;;6162547;23;20005;-93
2022/04/08 05:00:22;;;;;;;4.70;2.70;;;2.30;99.90;;;;;;6162318;23;20052;-92
2022/04/08 05:02:47;;;;;;;9.73;3.15;;;2.30;99.90;;;;;;6162455;23;20433;-92
2022/04/08 05:05:14;;;;;;;8.45;2.97;;;2.30;99.90;;;;;;6162205;23;20013;-93
2022/04/08 05:07:41;;;;;;;4.30;2.45;;;2.20;99.90;;;;;;6162615;23;20001;-92
2022/04/08 05:10:07;;;;;;;8.52;2.78;;;2.20;99.90;;;;;;6162163;23;20009;-92
2022/04/08 05:12:35;;;;;;;4.60;2.17;;;2.20;99.90;;;;;;6162343;23;20005;-92
2022/04/08 05:15:02;;;;;;;9.25;1.90;;;2.10;99.90;;;;;;6162351;23;20008;-92
2022/04/08 05:17:28;;;;;;;3.50;2.00;;;2.10;99.90;;;;;;6162195;23;20429;-93
2022/04/08 05:19:55;;;;;;;9.93;2.50;;;2.10;99.90;;;;;;6162110;23;20017;-93
2022/04/08 05:22:20;;;;;;;5.95;2.00;;;2.10;99.90;;;;;;6161926;23;20024;-92
2022/04/08 05:24:46;;;;;;;4.28;2.03;;;2.10;99.90;;;;;;6162242;23;20044;-93
2022/04/08 05:27:12;;;;;;;6.20;2.10;;;2.00;99.90;;;;;;6162478;23;20059;-93
2022/04/08 05:29:37;;;;;;;4.78;1.85;;;2.00;99.90;;;;;;6166288;23;20035;-93
2022/04/08 05:32:04;;;;;;;7.15;2.53;;;1.90;99.90;;;;;;6174998;23;20052;-93
2022/04/08 05:34:29;;;;;;;8.75;3.80;;;1.90;99.90;;;;;;6178334;23;20044;-92
2022/04/08 05:36:55;;;;;;;7.95;2.30;;;1.90;99.90;;;;;;6175186;23;20420;-92
2022/04/08 05:39:21;;;;;;;9.02;3.00;;;1.80;99.90;;;;;;6162266;23;20089;-92
2022/04/08 05:41:47;;;;;;;9.55;3.20;;;1.80;99.90;;;;;;6188422;23;20325;-93
2022/04/08 05:44:12;;;;;;;5.80;2.97;;;1.80;99.90;;;;;;6161750;23;20031;-92
2022/04/08 05:46:38;;;;;;;7.78;2.42;;;1.80;99.90;;;;;;6161139;23;20029;-93
2022/04/08 05:49:04;;;;;;;5.97;3.55;;;1.70;99.90;;;;;;6169639;23;20016;-92
2022/04/08 05:51:30;;;;;;;6.43;2.35;;;1.70;99.90;;;;;;6186549;23;20001;-93
2022/04/08 05:53:55;;;;;;;10.27;3.97;;;1.70;99.90;;;;;;6186265;23;20089;-93
2022/04/08 05:56:21;;;;;;;7.00;2.67;;;1.60;99.90;;;;;;6186083;23;20071;-93
2022/04/08 05:58:46;;;;;;;11.60;3.45;;;1.60;99.90;;;;;;6187222;23;20055;-91
2022/04/08 06:01:12;;;;;;;9.77;3.40;;;1.60;99.90;;;;;;6185994;23;20009;-92
2022/04/08 06:03:38;;;;;;;11.75;2.78;;;1.60;99.90;;;;;;6185795;23;20013;-92
2022/04/08 06:06:04;;;;;;;12.93;3.55;;;1.60;99.90;;;;;;6186568;23;20009;-93
2022/04/08 06:08:30;;;;;;;6.15;2.22;;;1.60;99.90;;;;;;6186684;23;20031;-91
2022/04/08 06:10:56;;;;;;;7.55;3.20;;;1.60;99.90;;;;;;6186731;23;20029;-91
2022/04/08 06:13:24;;;;;;;4.88;2.10;;;1.60;99.90;;;;;;6186656;23;20001;-93
2022/04/08 06:15:51;;;;;;;10.35;3.70;;;1.50;99.90;;;;;;6187078;23;20005;-92
2022/04/08 06:18:18;;;;;;;7.40;2.50;;;1.50;99.90;;;;;;6186783;23;20055;-91
2022/04/08 06:20:44;;;;;;;8.20;2.80;;;1.50;99.90;;;;;;6186720;23;20478;-92
2022/04/08 06:23:10;;;;;;;8.02;2.65;;;1.50;99.90;;;;;;6186275;23;20005;-93
2022/04/08 06:25:35;;;;;;;6.22;3.05;;;1.50;99.90;;;;;;6186488;23;20015;-91
2022/04/08 06:28:04;;;;;;;3.30;2.35;;;1.50;99.90;;;;;;6186052;23;20035;-92
2022/04/08 06:30:35;;;;;;;6.82;3.13;;;1.60;99.90;;;;;;6186329;23;20001;-92
2022/04/08 06:33:01;;;;;;;5.47;2.95;;;1.60;99.90;;;;;;6186111;23;20005;-92
2022/04/08 06:35:27;;;;;;;4.95;2.50;;;1.60;99.90;;;;;;6186299;23;20009;-92
2022/04/08 06:38:04;;;;;;;7.38;3.03;;;1.60;99.90;;;;;;6186235;23;20310;-92
2022/04/08 06:40:32;;;;;;;11.88;4.03;;;1.70;99.90;;;;;;6195105;23;20017;-92
2022/04/08 06:43:00;;;;;;;9.63;2.92;;;1.70;99.90;;;;;;6190098;23;20009;-92
2022/04/08 06:45:26;;;;;;;6.05;2.70;;;1.70;99.90;;;;;;6190474;23;20012;-91
2022/04/08 06:47:52;;;;;;;6.03;2.30;;;1.70;99.90;;;;;;6197304;23;20005;-93
2022/04/08 06:50:19;;;;;;;6.20;2.35;;;1.70;99.90;;;;;;6186479;23;20044;-91
2022/04/08 06:52:46;;;;;;;4.05;2.55;;;1.70;99.90;;;;;;6185961;23;20452;-92
2022/04/08 06:55:12;;;;;;;4.78;2.38;;;1.70;99.90;;;;;;6188497;23;20140;-92
2022/04/08 06:57:38;;;;;;;13.25;3.92;;;1.70;99.90;;;;;;6186118;23;20084;-94
2022/04/08 07:00:06;;;;;;;6.22;2.67;;;1.80;99.90;;;;;;6186810;23;20441;-93
2022/04/08 07:02:32;;;;;;;6.10;3.47;;;1.80;99.90;;;;;;6186311;23;20030;-93
2022/04/08 07:04:57;;;;;;;9.75;3.80;;;1.80;99.90;;;;;;6186429;23;20016;-92
2022/04/08 07:07:28;;;;;;;8.25;3.53;;;1.80;99.90;;;;;;6188287;23;20088;-92
2022/04/08 07:09:53;;;;;;;5.47;2.85;;;1.90;99.90;;;;;;6189480;23;20059;-91
2022/04/08 07:12:19;;;;;;;6.75;3.10;;;1.80;99.90;;;;;;6192111;23;20005;-92
2022/04/08 07:14:45;;;;;;;5.00;2.40;;;1.90;99.90;;;;;;6189987;23;20317;-93
2022/04/08 07:17:14;;;;;;;8.75;4.20;;;1.90;99.90;;;;;;6188723;23;20009;-93
2022/04/08 07:19:40;;;;;;;13.20;3.83;;;1.90;99.90;;;;;;6190415;23;19997;-93
2022/04/08 07:22:06;;;;;;;9.77;2.88;;;2.00;99.90;;;;;;6189677;23;20001;-92
2022/04/08 07:24:32;;;;;;;10.00;3.10;;;2.00;99.90;;;;;;6190521;23;20024;-93
2022/04/08 07:26:58;;;;;;;4.47;2.95;;;2.10;99.90;;;;;;6189475;23;20119;-92
2022/04/08 07:29:23;;;;;;;6.65;2.38;;;2.20;99.90;;;;;;6191592;23;20467;-93
2022/04/08 07:31:50;;;;;;;6.72;2.70;;;2.20;99.90;;;;;;6189797;23;20020;-93
2022/04/08 07:34:16;;;;;;;4.07;2.10;;;2.30;99.90;;;;;;6189263;23;20005;-93
2022/04/08 07:36:42;;;;;;;6.47;2.00;;;2.40;99.90;;;;;;6188972;23;20001;-93
2022/04/08 07:39:07;;;;;;;9.35;2.05;;;2.50;99.90;;;;;;6164030;23;20094;-92
2022/04/08 07:41:33;;;;;;;3.25;1.80;;;2.50;99.90;;;;;;6188382;23;20005;-93
2022/04/08 07:43:59;;;;;;;8.75;2.10;;;2.60;99.90;;;;;;6188149;23;20013;-93
2022/04/08 07:46:24;;;;;;;7.63;2.63;;;2.60;99.90;;;;;;6188898;23;20012;-92
2022/04/08 07:48:51;;;;;;;3.58;2.00;;;2.70;99.90;;;;;;6187974;23;20017;-93
2022/04/08 07:51:17;;;;;;;5.07;1.92;;;2.80;99.90;;;;;;6187509;23;20029;-93
2022/04/08 07:53:43;;;;;;;7.65;1.83;;;2.80;99.90;;;;;;6187901;23;20395;-92
2022/04/08 07:56:08;;;;;;;7.53;2.03;;;2.90;99.90;;;;;;6187326;23;20012;-94
2022/04/08 07:58:34;;;;;;;7.25;1.90;;;2.90;99.90;;;;;;6187745;23;20004;-93
2022/04/08 08:01:00;;;;;;;9.15;1.83;;;3.00;99.90;;;;;;6187557;23;20089;-93
2022/04/08 08:03:25;;;;;;;4.75;2.08;;;3.10;99.90;;;;;;6187105;23;20015;-93
2022/04/08 08:05:53;;;;;;;3.38;0.90;;;3.20;99.90;;;;;;6188683;23;20013;-95
2022/04/08 08:08:20;;;;;;;1.85;1.10;;;3.30;99.90;;;;;;6187392;23;20012;-93
2022/04/08 08:10:46;;;;;;;4.40;1.25;;;3.30;99.90;;;;;;6187840;23;20425;-93
2022/04/08 08:13:12;;;;;;;9.80;0.95;;;3.40;99.90;;;;;;6187286;23;20005;-93
2022/04/08 08:15:39;;;;;;;3.13;1.10;;;3.50;99.90;;;;;;6187653;23;20009;-93
2022/04/08 08:18:07;;;;;;;3.45;0.90;;;3.60;99.90;;;;;;6189585;23;19997;-94
2022/04/08 08:20:33;;;;;;;2.10;0.60;;;3.70;99.90;;;;;;6191292;23;20069;-93
2022/04/08 08:22:58;;;;;;;7.43;0.80;;;3.80;99.90;;;;;;6187936;23;20082;-93
2022/04/08 08:25:24;;;;;;;1.08;0.60;;;3.90;99.90;;;;;;6187860;23;20087;-94
2022/04/08 08:28:04;;;;;;;0.73;0.50;;;4.00;99.90;;;;;;6188934;23;20091;-92
2022/04/08 08:30:31;;;;;;;1.30;0.60;;;4.10;99.90;;;;;;6188135;23;20063;-94
2022/04/08 08:32:58;;;;;;;1.70;0.70;;;4.20;99.90;;;;;;6188159;23;20001;-93
2022/04/08 08:35:25;;;;;;;1.92;0.70;;;4.30;99.90;;;;;;6188155;23;20420;-94
2022/04/08 08:37:51;;;;;;;4.97;1.10;;;4.40;99.90;;;;;;6188759;23;20013;-94
2022/04/08 08:40:18;;;;;;;4.15;0.70;;;4.60;99.90;;;;;;6188537;23;20005;-93
2022/04/08 08:42:45;;;;;;;3.92;0.80;;;4.70;99.90;;;;;;6189201;23;20016;-93
2022/04/08 08:45:12;;;;;;;1.08;0.63;;;4.80;99.90;;;;;;6190860;23;20035;-93
2022/04/08 08:47:38;;;;;;;2.72;0.57;;;4.90;99.90;;;;;;6188665;23;20029;-92
2022/04/08 08:50:06;;;;;;;3.30;1.00;;;5.10;99.90;;;;;;6193739;23;20119;-93
2022/04/08 08:52:33;;;;;;;1.75;0.70;;;5.20;99.90;;;;;;6188615;23;20437;-92
2022/04/08 08:55:00;;;;;;;4.35;0.75;;;5.30;99.90;;;;;;6188141;23;20012;-94
2022/04/08 08:57:26;;;;;;;1.58;0.68;;;5.40;99.90;;;;;;6189390;23;20020;-92
2022/04/08 09:00:02;;;;;;;1.90;1.25;;;5.50;99.90;;;;;;6191428;23;20071;-94
2022/04/08 09:02:27;;;;;;;2.08;0.80;;;5.50;99.90;;;;;;6205387;23;20037;-93
2022/04/08 09:04:53;;;;;;;1.85;0.77;;;5.60;99.90;;;;;;6194669;23;20012;-94
2022/04/08 09:07:29;;;;;;;1.23;0.65;;;5.70;99.90;;;;;;6194740;23;20005;-92
2022/04/08 09:09:57;;;;;;;3.08;0.50;;;5.80;99.90;;;;;;6206652;23;20060;-96
2022/04/08 09:12:25;;;;;;;8.43;0.90;;;5.90;99.90;;;;;;6206560;23;20008;-96
2022/04/08 09:14:53;;;;;;;2.40;0.52;;;6.10;99.90;;;;;;6208067;23;20023;-96
2022/04/08 09:17:21;;;;;;;3.40;0.80;;;6.20;99.90;;;;;;6211727;23;20001;-95
2022/04/08 09:19:53;;;;;;;3.72;0.88;;;6.30;99.90;;;;;;6212230;23;20002;-95
2022/04/08 09:22:21;;;;;;;1.63;0.60;;;6.50;99.90;;;;;;6212280;23;20020;-96
2022/04/08 09:24:47;;;;;;;5.65;1.20;;;6.60;99.90;;;;;;6209070;23;20021;-94
2022/04/08 09:27:13;;;;;;;6.30;1.00;;;6.80;99.90;;;;;;6199493;23;20001;-94
2022/04/08 09:29:46;;;;;;;2.67;1.40;;;7.00;99.90;;;;;;6191587;23;20009;-94
2022/04/08 09:32:15;;;;;;;3.85;0.70;;;7.10;99.90;;;;;;6190253;23;20001;-94
2022/04/08 09:34:42;;;;;;;2.15;0.80;;;7.20;99.90;;;;;;6191422;23;20086;-95
2022/04/08 09:37:10;;;;;;;1.55;0.60;;;7.40;99.90;;;;;;6194299;23;20000;-95
2022/04/08 09:39:37;;;;;;;3.58;0.90;;;7.60;99.90;;;;;;6194263;23;20005;-96
2022/04/08 09:42:06;;;;;;;6.07;1.90;;;7.70;99.90;;;;;;6197217;23;20001;-95
2022/04/08 09:44:40;;;;;;;3.65;0.68;;;7.90;99.90;;;;;;6197728;23;20024;-95
2022/04/08 09:47:06;;;;;;;2.60;0.73;;;8.00;99.90;;;;;;6207393;23;20012;-95
2022/04/08 09:49:32;;;;;;;3.03;1.27;;;8.20;99.90;;;;;;6207345;23;20017;-96
2022/04/08 09:52:01;;;;;;;3.97;1.27;;;8.30;99.90;;;;;;6207982;23;20024;-96
2022/04/08 09:54:29;;;;;;;4.47;0.75;;;8.60;99.90;;;;;;6191128;23;20009;-93
2022/04/08 09:56:58;;;;;;;1.05;0.68;;;8.80;99.50;;;;;;6187671;23;20005;-93
2022/04/08 09:59:29;;;;;;;2.10;1.10;;;9.00;98.60;;;;;;6187812;23;20012;-94
2022/04/08 10:01:57;;;;;;;1.20;0.70;;;9.20;97.80;;;;;;6187423;23;20009;-93
2022/04/08 10:04:23;;;;;;;1.85;0.55;;;9.30;96.80;;;;;;6187534;23;20076;-93
2022/04/08 10:06:49;;;;;;;1.63;0.73;;;9.40;95.30;;;;;;6188407;23;20062;-94
2022/04/08 10:09:17;;;;;;;1.30;0.57;;;9.40;94.20;;;;;;6195429;23;20009;-96
2022/04/08 10:12:09;;;;;;;3.70;0.85;;;9.40;93.60;;;;;;6205177;23;20013;-95
2022/04/08 10:14:48;;;;;;;6.00;1.05;;;9.30;92.90;;;;;;6133822;23;20006;-96
2022/04/08 10:17:15;;;;;;;6.40;1.10;;;9.40;92.50;;;;;;6131558;23;20543;-96
2022/04/08 10:19:41;;;;;;;4.22;1.17;;;9.50;92.40;;;;;;6106308;23;20002;-96
2022/04/08 10:22:20;;;;;;;4.13;1.00;;;9.60;91.50;;;;;;6106716;23;20089;-96
2022/04/08 10:24:57;;;;;;;7.80;1.00;;;9.60;91.10;;;;;;6105962;23;20480;-96
2022/04/08 10:27:38;;;;;;;1.55;0.90;;;9.60;90.70;;;;;;6107929;23;20488;-96
2022/04/08 10:30:23;;;;;;;3.10;1.15;;;9.70;90.60;;;;;;6108563;23;20002;-96
2022/04/08 10:33:09;;;;;;;5.18;1.10;;;10.00;90.00;;;;;;6110143;23;20013;-96
2022/04/08 10:35:37;;;;;;;4.35;1.23;;;10.20;90.00;;;;;;6106854;23;20002;-94
2022/04/08 10:38:07;;;;;;;1.98;1.00;;;10.50;89.90;;;;;;6111550;23;20010;-96
2022/04/08 10:40:38;;;;;;;2.45;1.10;;;10.80;89.30;;;;;;6110808;23;20006;-96
2022/04/08 10:43:08;;;;;;;4.30;1.35;;;11.10;87.20;;;;;;6118060;23;20217;-95
2022/04/08 10:45:35;;;;;;;3.60;1.20;;;11.30;86.10;;;;;;6143648;23;20054;-95
2022/04/08 10:48:12;;;;;;;4.88;2.00;;;11.50;84.70;;;;;;6115244;23;20006;-94
2022/04/08 10:50:41;;;;;;;4.65;1.13;;;11.60;83.60;;;;;;6125671;23;20030;-94
2022/04/08 10:53:10;;;;;;;3.63;0.70;;;11.80;82.70;;;;;;6176937;23;20001;-95
2022/04/08 10:55:51;;;;;;;1.45;0.82;;;11.90;81.50;;;;;;6198078;23;20096;-96
2022/04/08 10:58:39;;;;;;;4.80;1.00;;;12.00;79.50;;;;;;6196090;23;20086;-95
2022/04/08 11:01:19;;;;;;;2.10;0.90;;;12.20;78.10;;;;;;6204813;23;20060;-94
2022/04/08 11:04:06;;;;;;;3.05;1.08;;;12.30;77.60;;;;;;6206564;23;20041;-96
2022/04/08 11:06:33;;;;;;;1.13;0.65;;;12.20;77.20;;;;;;6205287;23;20005;-96
2022/04/08 11:09:26;;;;;;;2.00;0.60;;;12.20;76.80;;;;;;6206823;23;20032;-95
2022/04/08 11:11:53;;;;;;;1.73;0.88;;;12.00;75.70;;;;;;6208582;23;20023;-95
2022/04/08 11:14:24;;;;;;;1.02;0.75;;;11.70;75.10;;;;;;6206616;23;19997;-96
2022/04/08 11:16:50;;;;;;;;;;;11.60;75.40;;;;;;6206939;23;20010;-95
2022/04/08 11:19:29;;;;;;;5.32;1.00;;;11.70;76.10;;;;;;6209486;23;19924;-95
2022/04/08 11:22:25;;;;;;;3.72;0.88;;;12.00;75.70;;;;;;6208265;23;20028;-96
2022/04/08 11:25:04;;;;;;;1.90;0.70;;;12.20;74.90;;;;;;6209707;23;20028;-95
2022/04/08 11:27:39;;;;;;;2.63;1.55;;;12.30;74.40;;;;;;6208939;23;20013;-95
2022/04/08 11:30:17;;;;;;;1.27;0.68;;;12.20;73.50;;;;;;6206926;23;20005;-95
2022/04/08 11:32:50;;;;;;;2.28;1.08;;;12.10;72.40;;;;;;6205575;23;20472;-95
2022/04/08 11:35:39;;;;;;;0.98;0.60;;;11.90;72.20;;;;;;6207081;23;20009;-94
2022/04/08 11:38:36;;;;;;;3.85;0.80;;;11.60;72.20;;;;;;6209293;23;19993;-95
2022/04/08 11:41:27;;;;;;;2.35;0.88;;;11.60;72.10;;;;;;6189128;23;20040;-94
2022/04/08 11:44:08;;;;;;;4.35;1.05;;;11.90;71.70;;;;;;6208354;23;20012;-95
2022/04/08 11:46:46;;;;;;;3.80;0.90;;;12.20;71.10;;;;;;6208862;23;20421;-95
2022/04/08 11:49:24;;;;;;;4.53;1.30;;;12.40;70.60;;;;;;6205579;23;20025;-95
2022/04/08 11:52:04;;;;;;;1.33;0.80;;;12.40;70.60;;;;;;6206597;23;20005;-95
2022/04/08 11:54:40;;;;;;;5.55;0.90;;;12.40;70.70;;;;;;6206769;23;20005;-95
2022/04/08 11:57:18;;;;;;;2.47;0.65;;;12.50;70.60;;;;;;6209838;23;20008;-95
2022/04/08 11:59:58;;;;;;;3.70;0.80;;;12.80;70.10;;;;;;6210820;23;20016;-95
2022/04/08 12:05:45;;;;;;;4.20;1.00;;;13.50;68.00;;;;;;6212293;23;20044;-95
2022/04/08 12:08:42;;;;;;;0.80;0.70;;;13.60;66.60;;;;;;6186311;23;20016;-95
2022/04/08 12:11:22;;;;;;;2.85;0.77;;;13.30;66.50;;;;;;6209402;23;20005;-94
2022/04/08 12:13:56;;;;;;;2.15;0.65;;;13.10;66.90;;;;;;6194430;23;20001;-94
2022/04/08 12:16:28;;;;;;;2.90;1.23;;;13.20;67.50;;;;;;6206126;23;19997;-95
2022/04/08 12:18:58;;;;;;;1.40;0.50;;;13.40;66.60;;;;;;6207729;23;20052;-95
2022/04/08 12:21:34;;;;;;;3.38;0.75;;;13.40;65.50;;;;;;6206338;23;20005;-95
2022/04/08 12:24:10;;;;;;;1.20;0.60;;;13.40;64.40;;;;;;6207022;23;20009;-95
2022/04/08 12:26:39;;;;;;;2.42;0.75;;;13.60;64.00;;;;;;6208068;23;20005;-95
2022/04/08 12:29:17;;;;;;;3.05;0.68;;;13.80;63.30;;;;;;6207885;23;20084;-95
2022/04/08 12:32:02;;;;;;;1.15;0.70;;;13.70;62.50;;;;;;6206736;23;20005;-94
2022/04/08 12:34:27;;;;;;;2.05;0.60;;;13.50;62.10;;;;;;6193784;23;20001;-93
2022/04/08 12:36:53;;;;;;;3.45;0.80;;;13.20;62.30;;;;;;6188230;23;20091;-93
2022/04/08 12:39:19;;;;;;;1.15;0.68;;;12.80;62.80;;;;;;6188711;23;20005;-93
2022/04/08 12:41:47;;;;;;;1.45;0.60;;;12.70;63.40;;;;;;6188696;23;20040;-94
2022/04/08 12:44:13;;;;;;;2.45;0.70;;;12.80;63.30;;;;;;6188727;23;20104;-96
2022/04/08 12:46:39;;;;;;;1.48;0.70;;;13.10;63.00;;;;;;6189656;23;20001;-93
2022/04/08 12:49:06;;;;;;;1.88;0.63;;;13.50;62.20;;;;;;6188200;23;20383;-93
2022/04/08 12:51:32;;;;;;;2.78;0.47;;;13.80;61.10;;;;;;6189061;23;20001;-94
2022/04/08 12:53:59;;;;;;;1.13;0.50;;;13.70;60.60;;;;;;6190406;23;20015;-94
2022/04/08 12:56:26;;;;;;;4.45;0.80;;;13.40;60.40;;;;;;6188012;23;20001;-94
2022/04/08 12:58:53;;;;;;;2.72;0.75;;;13.20;61.20;;;;;;6190809;23;20035;-94
2022/04/08 13:01:19;;;;;;;4.75;0.77;;;12.90;61.70;;;;;;6187990;23;20428;-93